Αρχική σελίδα
METAR-TAF:

METAR-TAF

Αεροδρόμια :

New Century AirCenter

Olathe, Κάνσας, Ηνωμένες Πολιτείες Αμερικής

γεωγραφικό πλάτος: 38-49-28N, γεωγραφικό μήκος: 094-53-13W, υψόμετρο: 331 μ

Παρών καιρός

Η αναφορά έγινε 1 ώρα και 7 λεπτά πριν, στις 01:53 UTC
Άνεμος 6 kt από Β
Θερμοκρασία 10°C
Υγρασία 66%
Πίεση 1016 hPa
Ορατότητα: 16.1 χλμ
Καθαρός ουρανός

METAR: KIXD 260153Z 35006KT 10SM CLR 10/04 A2999 RMK AO2 SLP155 T01000044

Χρόνος: 22:00 (03:00 UTC)

Πρόγνωση Καιρού

Η αναφορά έγινε 3 ώρες και 40 λεπτά πριν, στις 23:20 UTC
Η πρόγνωση ισχύει από τις 26 στις 00 UTC έως τις 26 στις 24 UTC
Άνεμος 17 kt από Β με ριπές μέχρι 25 kt
Ορατότητα: 10 χλμ
Λίγα νέφη σε ύψος 6000 πόδια
Από 26 στις 0100 UTC
Άνεμος 8 kt από
Ορατότητα: 10 χλμ
Καθαρός ουρανός

TAF: KIXD 252320Z 2600/2624 35017G25KT P6SM FEW060 FM260100 32008KT P6SM SKC

Μετεωρολογικές αναφορές και προγνώσεις για περισσότερα από 4000 αεροδρόμια (δελτία METAR και TAF).

Οι διαθέσιμοι σταθμοί απεικονίζονται στο χάρτη με κίτρινες και κόκκινες κουκκίδες.

Μετακινήστε το ποντίκι πάνω από τις κουκκίδες για να δείτε το όνομα του σταθμού.

Στη συνέχεια, κάντε κλικ για να δείτε τις μετεωρολογικές αναφορές και τις προγνώσεις καιρού.

Για να αλλάξετε το χάρτη: κάντε κλικ στα πράσινα κουμπιά με τον μαύρο σταυρό για να ζουμάρετε, στο πράσινο κουμπί με την παύλα για να αφαιρέσετε το ζουμ ή στα πράσινα βέλη για να αντιπαραβάλλετε χάρτες.


METAR-TAF: